sensor_id;sensor_type;location;lat;lon;timestamp;temperature;humidity
70368;DHT22;57789;53.868;10.728;2023-07-29T00:00:40;17.40;99.90
70368;DHT22;57789;53.868;10.728;2023-07-29T00:03:06;17.50;99.90
70368;DHT22;57789;53.868;10.728;2023-07-29T00:05:31;17.50;99.90
70368;DHT22;57789;53.868;10.728;2023-07-29T00:07:57;17.40;99.90
70368;DHT22;57789;53.868;10.728;2023-07-29T00:10:23;17.40;99.90
70368;DHT22;57789;53.868;10.728;2023-07-29T00:12:48;17.40;99.90
70368;DHT22;57789;53.868;10.728;2023-07-29T00:15:14;17.40;99.90
70368;DHT22;57789;53.868;10.728;2023-07-29T00:17:40;17.50;99.90
70368;DHT22;57789;53.868;10.728;2023-07-29T00:20:06;17.60;99.90
70368;DHT22;57789;53.868;10.728;2023-07-29T00:22:32;17.60;99.90
70368;DHT22;57789;53.868;10.728;2023-07-29T00:24:58;17.50;99.90
70368;DHT22;57789;53.868;10.728;2023-07-29T00:27:24;17.40;99.90
70368;DHT22;57789;53.868;10.728;2023-07-29T00:29:50;17.40;99.90
70368;DHT22;57789;53.868;10.728;2023-07-29T00:32:16;17.30;99.90
70368;DHT22;57789;53.868;10.728;2023-07-29T00:34:42;17.40;99.90
70368;DHT22;57789;53.868;10.728;2023-07-29T00:37:07;17.40;99.90
70368;DHT22;57789;53.868;10.728;2023-07-29T00:39:33;17.50;99.90
70368;DHT22;57789;53.868;10.728;2023-07-29T00:41:59;17.50;99.90
70368;DHT22;57789;53.868;10.728;2023-07-29T00:44:25;17.50;99.90
70368;DHT22;57789;53.868;10.728;2023-07-29T00:46:52;17.40;99.90
70368;DHT22;57789;53.868;10.728;2023-07-29T00:49:19;17.40;99.90
70368;DHT22;57789;53.868;10.728;2023-07-29T00:51:45;17.30;99.90
70368;DHT22;57789;53.868;10.728;2023-07-29T00:54:11;17.10;99.90
70368;DHT22;57789;53.868;10.728;2023-07-29T00:56:37;17.00;99.90
70368;DHT22;57789;53.868;10.728;2023-07-29T00:59:03;16.90;99.90
70368;DHT22;57789;53.868;10.728;2023-07-29T01:01:30;17.00;99.90
70368;DHT22;57789;53.868;10.728;2023-07-29T01:03:56;17.00;99.90
70368;DHT22;57789;53.868;10.728;2023-07-29T01:06:29;17.10;99.90
70368;DHT22;57789;53.868;10.728;2023-07-29T01:09:04;17.10;99.90
70368;DHT22;57789;53.868;10.728;2023-07-29T01:11:38;17.20;99.90
70368;DHT22;57789;53.868;10.728;2023-07-29T01:16:43;17.30;99.90
70368;DHT22;57789;53.868;10.728;2023-07-29T01:19:41;17.20;99.90
70368;DHT22;57789;53.868;10.728;2023-07-29T01:22:08;17.10;99.90
70368;DHT22;57789;53.868;10.728;2023-07-29T01:24:34;17.10;99.90
70368;DHT22;57789;53.868;10.728;2023-07-29T01:27:00;17.10;99.90
70368;DHT22;57789;53.868;10.728;2023-07-29T01:29:27;17.10;99.90
70368;DHT22;57789;53.868;10.728;2023-07-29T01:31:56;17.00;99.90
70368;DHT22;57789;53.868;10.728;2023-07-29T01:34:32;17.00;99.90
70368;DHT22;57789;53.868;10.728;2023-07-29T01:37:05;17.00;99.90
70368;DHT22;57789;53.868;10.728;2023-07-29T01:39:34;16.80;99.90
70368;DHT22;57789;53.868;10.728;2023-07-29T01:42:02;16.70;99.90
70368;DHT22;57789;53.868;10.728;2023-07-29T01:44:28;16.70;99.90
70368;DHT22;57789;53.868;10.728;2023-07-29T01:46:55;16.70;99.90
70368;DHT22;57789;53.868;10.728;2023-07-29T01:49:21;16.60;99.90
70368;DHT22;57789;53.868;10.728;2023-07-29T01:51:47;16.60;99.90
70368;DHT22;57789;53.868;10.728;2023-07-29T01:54:12;16.70;99.90
70368;DHT22;57789;53.868;10.728;2023-07-29T01:56:38;16.60;99.90
70368;DHT22;57789;53.868;10.728;2023-07-29T01:59:04;16.60;99.90
70368;DHT22;57789;53.868;10.728;2023-07-29T02:01:29;16.70;99.90
70368;DHT22;57789;53.868;10.728;2023-07-29T02:03:56;16.70;99.90
70368;DHT22;57789;53.868;10.728;2023-07-29T02:06:22;16.80;99.90
70368;DHT22;57789;53.868;10.728;2023-07-29T02:08:48;16.80;99.90
70368;DHT22;57789;53.868;10.728;2023-07-29T02:11:14;16.80;99.90
70368;DHT22;57789;53.868;10.728;2023-07-29T02:13:40;16.80;99.90
70368;DHT22;57789;53.868;10.728;2023-07-29T02:16:05;16.80;99.90
70368;DHT22;57789;53.868;10.728;2023-07-29T02:18:31;16.80;99.90
70368;DHT22;57789;53.868;10.728;2023-07-29T02:20:56;16.80;99.90
70368;DHT22;57789;53.868;10.728;2023-07-29T02:23:22;16.80;99.90
70368;DHT22;57789;53.868;10.728;2023-07-29T02:25:48;16.90;99.90
70368;DHT22;57789;53.868;10.728;2023-07-29T02:28:14;17.00;99.90
70368;DHT22;57789;53.868;10.728;2023-07-29T02:30:41;17.10;99.90
70368;DHT22;57789;53.868;10.728;2023-07-29T02:33:07;17.10;99.90
70368;DHT22;57789;53.868;10.728;2023-07-29T02:35:33;17.10;99.90
70368;DHT22;57789;53.868;10.728;2023-07-29T02:37:59;17.20;99.90
70368;DHT22;57789;53.868;10.728;2023-07-29T02:40:24;17.20;99.90
70368;DHT22;57789;53.868;10.728;2023-07-29T02:42:52;17.20;99.90
70368;DHT22;57789;53.868;10.728;2023-07-29T02:45:18;17.30;99.90
70368;DHT22;57789;53.868;10.728;2023-07-29T02:47:44;17.30;99.90
70368;DHT22;57789;53.868;10.728;2023-07-29T02:50:09;17.40;99.90
70368;DHT22;57789;53.868;10.728;2023-07-29T02:52:35;17.50;99.90
70368;DHT22;57789;53.868;10.728;2023-07-29T02:55:01;17.50;99.90
70368;DHT22;57789;53.868;10.728;2023-07-29T02:57:27;17.50;99.90
70368;DHT22;57789;53.868;10.728;2023-07-29T02:59:53;17.40;99.90
70368;DHT22;57789;53.868;10.728;2023-07-29T03:02:18;17.30;99.90
70368;DHT22;57789;53.868;10.728;2023-07-29T03:04:44;17.30;99.90
70368;DHT22;57789;53.868;10.728;2023-07-29T03:07:09;17.30;99.90
70368;DHT22;57789;53.868;10.728;2023-07-29T03:09:36;17.20;99.90
70368;DHT22;57789;53.868;10.728;2023-07-29T03:12:02;17.10;99.90
70368;DHT22;57789;53.868;10.728;2023-07-29T03:14:27;17.20;99.90
70368;DHT22;57789;53.868;10.728;2023-07-29T03:16:53;17.20;99.90
70368;DHT22;57789;53.868;10.728;2023-07-29T03:19:19;17.20;99.90
70368;DHT22;57789;53.868;10.728;2023-07-29T03:21:45;17.10;99.90
70368;DHT22;57789;53.868;10.728;2023-07-29T03:24:11;17.10;99.90
70368;DHT22;57789;53.868;10.728;2023-07-29T03:26:37;17.10;99.90
70368;DHT22;57789;53.868;10.728;2023-07-29T03:29:02;17.10;99.90
70368;DHT22;57789;53.868;10.728;2023-07-29T03:31:28;17.10;99.90
70368;DHT22;57789;53.868;10.728;2023-07-29T03:33:54;17.00;99.90
70368;DHT22;57789;53.868;10.728;2023-07-29T03:36:21;17.00;99.90
70368;DHT22;57789;53.868;10.728;2023-07-29T03:38:46;17.00;99.90
70368;DHT22;57789;53.868;10.728;2023-07-29T03:41:12;17.00;99.90
70368;DHT22;57789;53.868;10.728;2023-07-29T03:43:38;17.00;99.90
70368;DHT22;57789;53.868;10.728;2023-07-29T03:46:04;17.00;99.90
70368;DHT22;57789;53.868;10.728;2023-07-29T03:48:30;17.00;99.90
70368;DHT22;57789;53.868;10.728;2023-07-29T03:50:56;17.00;99.90
70368;DHT22;57789;53.868;10.728;2023-07-29T03:53:22;17.00;99.90
70368;DHT22;57789;53.868;10.728;2023-07-29T03:55:48;17.00;99.90
70368;DHT22;57789;53.868;10.728;2023-07-29T03:58:15;17.10;99.90
70368;DHT22;57789;53.868;10.728;2023-07-29T04:00:41;17.20;99.90
70368;DHT22;57789;53.868;10.728;2023-07-29T04:03:06;17.20;99.90
70368;DHT22;57789;53.868;10.728;2023-07-29T04:05:32;17.20;99.90
70368;DHT22;57789;53.868;10.728;2023-07-29T04:07:58;17.20;99.90
70368;DHT22;57789;53.868;10.728;2023-07-29T04:10:23;17.20;99.90
70368;DHT22;57789;53.868;10.728;2023-07-29T04:12:49;17.20;99.90
70368;DHT22;57789;53.868;10.728;2023-07-29T04:15:15;17.20;99.90
70368;DHT22;57789;53.868;10.728;2023-07-29T04:17:41;17.20;99.90
70368;DHT22;57789;53.868;10.728;2023-07-29T04:20:06;17.20;99.90
70368;DHT22;57789;53.868;10.728;2023-07-29T04:22:33;17.20;99.90
70368;DHT22;57789;53.868;10.728;2023-07-29T04:24:59;17.30;99.90
70368;DHT22;57789;53.868;10.728;2023-07-29T04:27:24;17.30;99.90
70368;DHT22;57789;53.868;10.728;2023-07-29T04:29:50;17.30;99.90
70368;DHT22;57789;53.868;10.728;2023-07-29T04:32:16;17.30;99.90
70368;DHT22;57789;53.868;10.728;2023-07-29T04:34:41;17.40;99.90
70368;DHT22;57789;53.868;10.728;2023-07-29T04:37:07;17.40;99.90
70368;DHT22;57789;53.868;10.728;2023-07-29T04:39:33;17.50;99.90
70368;DHT22;57789;53.868;10.728;2023-07-29T04:41:58;17.50;99.90
70368;DHT22;57789;53.868;10.728;2023-07-29T04:44:24;17.50;99.90
70368;DHT22;57789;53.868;10.728;2023-07-29T04:46:50;17.50;99.90
70368;DHT22;57789;53.868;10.728;2023-07-29T04:49:15;17.60;99.90
70368;DHT22;57789;53.868;10.728;2023-07-29T04:51:41;17.60;99.90
70368;DHT22;57789;53.868;10.728;2023-07-29T04:54:06;17.70;99.90
70368;DHT22;57789;53.868;10.728;2023-07-29T04:56:32;17.70;99.90
70368;DHT22;57789;53.868;10.728;2023-07-29T04:58:58;17.60;99.90
70368;DHT22;57789;53.868;10.728;2023-07-29T05:01:23;17.60;99.90
70368;DHT22;57789;53.868;10.728;2023-07-29T05:03:50;17.60;99.90
70368;DHT22;57789;53.868;10.728;2023-07-29T05:06:15;17.70;99.90
70368;DHT22;57789;53.868;10.728;2023-07-29T05:08:41;17.70;99.90
70368;DHT22;57789;53.868;10.728;2023-07-29T05:11:07;17.70;99.90
70368;DHT22;57789;53.868;10.728;2023-07-29T05:13:32;17.70;99.90
70368;DHT22;57789;53.868;10.728;2023-07-29T05:15:58;17.80;99.90
70368;DHT22;57789;53.868;10.728;2023-07-29T05:18:24;17.80;99.90
70368;DHT22;57789;53.868;10.728;2023-07-29T05:20:49;17.90;99.90
70368;DHT22;57789;53.868;10.728;2023-07-29T05:23:15;17.90;99.90
70368;DHT22;57789;53.868;10.728;2023-07-29T05:25:41;17.90;99.90
70368;DHT22;57789;53.868;10.728;2023-07-29T05:28:06;18.00;99.90
70368;DHT22;57789;53.868;10.728;2023-07-29T05:30:32;18.10;99.90
70368;DHT22;57789;53.868;10.728;2023-07-29T05:33:05;18.20;99.90
70368;DHT22;57789;53.868;10.728;2023-07-29T05:35:33;18.30;99.90
70368;DHT22;57789;53.868;10.728;2023-07-29T05:37:58;18.30;99.90
70368;DHT22;57789;53.868;10.728;2023-07-29T05:40:24;18.40;99.90
70368;DHT22;57789;53.868;10.728;2023-07-29T05:42:49;18.40;99.90
70368;DHT22;57789;53.868;10.728;2023-07-29T05:45:15;18.50;99.90
70368;DHT22;57789;53.868;10.728;2023-07-29T05:47:41;18.50;99.90
70368;DHT22;57789;53.868;10.728;2023-07-29T05:50:07;18.50;99.90
70368;DHT22;57789;53.868;10.728;2023-07-29T05:52:33;18.50;99.90
70368;DHT22;57789;53.868;10.728;2023-07-29T05:54:59;18.50;99.90
70368;DHT22;57789;53.868;10.728;2023-07-29T05:57:25;18.40;99.90
70368;DHT22;57789;53.868;10.728;2023-07-29T05:59:50;18.50;99.90
70368;DHT22;57789;53.868;10.728;2023-07-29T06:02:16;18.60;99.90
70368;DHT22;57789;53.868;10.728;2023-07-29T06:04:41;18.60;99.90
70368;DHT22;57789;53.868;10.728;2023-07-29T06:07:07;18.50;99.90
70368;DHT22;57789;53.868;10.728;2023-07-29T06:09:33;18.50;99.90
70368;DHT22;57789;53.868;10.728;2023-07-29T06:11:59;18.50;99.90
70368;DHT22;57789;53.868;10.728;2023-07-29T06:14:25;18.40;99.90
70368;DHT22;57789;53.868;10.728;2023-07-29T06:16:51;18.40;99.90
70368;DHT22;57789;53.868;10.728;2023-07-29T06:19:18;18.40;99.90
70368;DHT22;57789;53.868;10.728;2023-07-29T06:21:43;18.50;99.90
70368;DHT22;57789;53.868;10.728;2023-07-29T06:24:09;18.50;99.90
70368;DHT22;57789;53.868;10.728;2023-07-29T06:26:35;18.60;99.90
70368;DHT22;57789;53.868;10.728;2023-07-29T06:29:00;18.70;99.90
70368;DHT22;57789;53.868;10.728;2023-07-29T06:31:26;18.80;99.90
70368;DHT22;57789;53.868;10.728;2023-07-29T06:33:51;18.80;99.90
70368;DHT22;57789;53.868;10.728;2023-07-29T06:36:17;18.90;99.90
70368;DHT22;57789;53.868;10.728;2023-07-29T06:38:43;19.00;99.90
70368;DHT22;57789;53.868;10.728;2023-07-29T06:41:09;18.90;99.90
70368;DHT22;57789;53.868;10.728;2023-07-29T06:43:34;19.00;99.90
70368;DHT22;57789;53.868;10.728;2023-07-29T06:46:00;19.10;99.90
70368;DHT22;57789;53.868;10.728;2023-07-29T06:48:26;19.20;99.90
70368;DHT22;57789;53.868;10.728;2023-07-29T06:50:51;19.30;99.90
70368;DHT22;57789;53.868;10.728;2023-07-29T06:53:17;19.20;99.90
70368;DHT22;57789;53.868;10.728;2023-07-29T06:55:44;19.20;99.90
70368;DHT22;57789;53.868;10.728;2023-07-29T06:58:10;19.30;99.90
70368;DHT22;57789;53.868;10.728;2023-07-29T07:00:36;19.40;99.90
70368;DHT22;57789;53.868;10.728;2023-07-29T07:03:02;19.40;99.90
70368;DHT22;57789;53.868;10.728;2023-07-29T07:05:27;19.60;99.90
70368;DHT22;57789;53.868;10.728;2023-07-29T07:07:53;19.70;99.90
70368;DHT22;57789;53.868;10.728;2023-07-29T07:10:19;19.90;99.90
70368;DHT22;57789;53.868;10.728;2023-07-29T07:12:45;20.00;99.90
70368;DHT22;57789;53.868;10.728;2023-07-29T07:15:10;20.00;99.90
70368;DHT22;57789;53.868;10.728;2023-07-29T07:17:36;20.10;99.90
70368;DHT22;57789;53.868;10.728;2023-07-29T07:20:02;20.20;99.90
70368;DHT22;57789;53.868;10.728;2023-07-29T07:22:28;20.20;99.90
70368;DHT22;57789;53.868;10.728;2023-07-29T07:24:54;20.20;99.90
70368;DHT22;57789;53.868;10.728;2023-07-29T07:27:20;20.30;99.90
70368;DHT22;57789;53.868;10.728;2023-07-29T07:29:45;20.30;99.90
70368;DHT22;57789;53.868;10.728;2023-07-29T07:32:11;20.40;99.90
70368;DHT22;57789;53.868;10.728;2023-07-29T07:34:37;20.50;99.90
70368;DHT22;57789;53.868;10.728;2023-07-29T07:37:02;20.50;99.90
70368;DHT22;57789;53.868;10.728;2023-07-29T07:39:29;20.50;99.90
70368;DHT22;57789;53.868;10.728;2023-07-29T07:41:55;20.60;99.90
70368;DHT22;57789;53.868;10.728;2023-07-29T07:44:21;20.60;99.90
70368;DHT22;57789;53.868;10.728;2023-07-29T07:46:46;20.70;99.90
70368;DHT22;57789;53.868;10.728;2023-07-29T07:49:12;20.80;99.90
70368;DHT22;57789;53.868;10.728;2023-07-29T07:51:39;20.80;99.90
70368;DHT22;57789;53.868;10.728;2023-07-29T07:54:04;20.80;99.90
70368;DHT22;57789;53.868;10.728;2023-07-29T07:56:30;21.00;99.90
70368;DHT22;57789;53.868;10.728;2023-07-29T07:58:56;21.20;99.90
70368;DHT22;57789;53.868;10.728;2023-07-29T08:01:21;21.40;99.90
70368;DHT22;57789;53.868;10.728;2023-07-29T08:03:47;21.50;99.90
70368;DHT22;57789;53.868;10.728;2023-07-29T08:06:14;21.50;99.90
70368;DHT22;57789;53.868;10.728;2023-07-29T08:08:39;21.60;99.90
70368;DHT22;57789;53.868;10.728;2023-07-29T08:11:05;21.60;99.90
70368;DHT22;57789;53.868;10.728;2023-07-29T08:13:31;21.70;99.90
70368;DHT22;57789;53.868;10.728;2023-07-29T08:15:56;21.70;99.90
70368;DHT22;57789;53.868;10.728;2023-07-29T08:18:22;21.70;99.90
70368;DHT22;57789;53.868;10.728;2023-07-29T08:20:56;21.50;99.90
70368;DHT22;57789;53.868;10.728;2023-07-29T08:23:24;21.30;99.90
70368;DHT22;57789;53.868;10.728;2023-07-29T08:25:54;21.10;99.90
70368;DHT22;57789;53.868;10.728;2023-07-29T08:28:22;21.00;99.90
70368;DHT22;57789;53.868;10.728;2023-07-29T08:30:48;20.90;99.90
70368;DHT22;57789;53.868;10.728;2023-07-29T08:33:14;20.90;99.90
70368;DHT22;57789;53.868;10.728;2023-07-29T08:35:39;21.00;99.90
70368;DHT22;57789;53.868;10.728;2023-07-29T08:38:05;21.30;99.90
70368;DHT22;57789;53.868;10.728;2023-07-29T08:40:32;21.40;99.90
70368;DHT22;57789;53.868;10.728;2023-07-29T08:43:04;21.60;99.90
70368;DHT22;57789;53.868;10.728;2023-07-29T08:45:34;21.70;99.90
70368;DHT22;57789;53.868;10.728;2023-07-29T08:48:02;21.80;99.90
70368;DHT22;57789;53.868;10.728;2023-07-29T08:50:32;21.60;99.90
70368;DHT22;57789;53.868;10.728;2023-07-29T08:52:59;21.60;99.90
70368;DHT22;57789;53.868;10.728;2023-07-29T08:55:25;21.60;99.90
70368;DHT22;57789;53.868;10.728;2023-07-29T08:57:51;21.60;99.90
70368;DHT22;57789;53.868;10.728;2023-07-29T09:00:17;21.50;99.90
70368;DHT22;57789;53.868;10.728;2023-07-29T09:02:42;21.30;99.90
70368;DHT22;57789;53.868;10.728;2023-07-29T09:05:08;21.20;99.90
70368;DHT22;57789;53.868;10.728;2023-07-29T09:07:34;21.10;99.90
70368;DHT22;57789;53.868;10.728;2023-07-29T09:10:01;20.90;99.90
70368;DHT22;57789;53.868;10.728;2023-07-29T09:12:27;20.80;99.90
70368;DHT22;57789;53.868;10.728;2023-07-29T09:14:52;20.70;99.90
70368;DHT22;57789;53.868;10.728;2023-07-29T09:17:20;20.60;99.90
70368;DHT22;57789;53.868;10.728;2023-07-29T09:19:51;20.50;99.90
70368;DHT22;57789;53.868;10.728;2023-07-29T09:22:20;20.40;99.90
70368;DHT22;57789;53.868;10.728;2023-07-29T09:24:46;20.50;99.90
70368;DHT22;57789;53.868;10.728;2023-07-29T09:27:28;20.50;99.90
70368;DHT22;57789;53.868;10.728;2023-07-29T09:29:57;20.70;99.90
70368;DHT22;57789;53.868;10.728;2023-07-29T09:32:24;20.60;99.90
70368;DHT22;57789;53.868;10.728;2023-07-29T09:34:50;20.80;99.90
70368;DHT22;57789;53.868;10.728;2023-07-29T09:37:22;20.70;99.90
70368;DHT22;57789;53.868;10.728;2023-07-29T09:39:49;20.70;99.90
70368;DHT22;57789;53.868;10.728;2023-07-29T09:42:22;20.80;99.90
70368;DHT22;57789;53.868;10.728;2023-07-29T09:44:49;20.90;99.90
70368;DHT22;57789;53.868;10.728;2023-07-29T09:47:23;21.00;99.90
70368;DHT22;57789;53.868;10.728;2023-07-29T09:49:49;20.90;99.90
70368;DHT22;57789;53.868;10.728;2023-07-29T09:52:21;20.90;99.90
70368;DHT22;57789;53.868;10.728;2023-07-29T09:54:47;20.90;99.90
70368;DHT22;57789;53.868;10.728;2023-07-29T09:57:18;20.80;99.90
70368;DHT22;57789;53.868;10.728;2023-07-29T10:00:04;20.80;99.90
70368;DHT22;57789;53.868;10.728;2023-07-29T10:02:37;20.90;99.90
70368;DHT22;57789;53.868;10.728;2023-07-29T10:05:03;21.00;99.90
70368;DHT22;57789;53.868;10.728;2023-07-29T10:07:30;21.10;99.90
70368;DHT22;57789;53.868;10.728;2023-07-29T10:09:58;21.30;99.90
70368;DHT22;57789;53.868;10.728;2023-07-29T10:12:25;21.60;99.90
70368;DHT22;57789;53.868;10.728;2023-07-29T10:14:52;21.80;99.90
70368;DHT22;57789;53.868;10.728;2023-07-29T10:17:20;21.90;99.90
70368;DHT22;57789;53.868;10.728;2023-07-29T10:19:46;21.90;99.90
70368;DHT22;57789;53.868;10.728;2023-07-29T10:22:13;21.90;99.90
70368;DHT22;57789;53.868;10.728;2023-07-29T10:24:42;22.10;99.90
70368;DHT22;57789;53.868;10.728;2023-07-29T10:27:10;22.20;99.90
70368;DHT22;57789;53.868;10.728;2023-07-29T10:29:38;22.10;99.90
70368;DHT22;57789;53.868;10.728;2023-07-29T10:32:07;22.10;99.90
70368;DHT22;57789;53.868;10.728;2023-07-29T10:34:34;22.10;99.90
70368;DHT22;57789;53.868;10.728;2023-07-29T10:37:02;22.00;99.90
70368;DHT22;57789;53.868;10.728;2023-07-29T10:39:27;22.00;99.90
70368;DHT22;57789;53.868;10.728;2023-07-29T10:42:02;22.00;99.90
70368;DHT22;57789;53.868;10.728;2023-07-29T10:44:56;21.90;99.90
70368;DHT22;57789;53.868;10.728;2023-07-29T10:47:24;22.00;99.90
70368;DHT22;57789;53.868;10.728;2023-07-29T10:49:57;22.00;99.90
70368;DHT22;57789;53.868;10.728;2023-07-29T10:55:00;22.20;99.90
70368;DHT22;57789;53.868;10.728;2023-07-29T10:57:34;22.40;99.90
70368;DHT22;57789;53.868;10.728;2023-07-29T11:00:00;22.60;99.90
70368;DHT22;57789;53.868;10.728;2023-07-29T11:02:31;22.80;99.90
70368;DHT22;57789;53.868;10.728;2023-07-29T11:04:58;23.20;99.90
70368;DHT22;57789;53.868;10.728;2023-07-29T11:07:27;23.10;99.90
70368;DHT22;57789;53.868;10.728;2023-07-29T11:09:58;23.00;99.90
70368;DHT22;57789;53.868;10.728;2023-07-29T11:12:44;23.00;99.90
70368;DHT22;57789;53.868;10.728;2023-07-29T11:17:41;22.90;99.90
70368;DHT22;57789;53.868;10.728;2023-07-29T11:20:08;22.90;99.90
70368;DHT22;57789;53.868;10.728;2023-07-29T11:22:34;23.10;99.90
70368;DHT22;57789;53.868;10.728;2023-07-29T11:25:00;23.30;99.90
70368;DHT22;57789;53.868;10.728;2023-07-29T11:27:26;23.60;99.90
70368;DHT22;57789;53.868;10.728;2023-07-29T11:29:57;24.10;99.90
70368;DHT22;57789;53.868;10.728;2023-07-29T11:32:24;24.40;99.90
70368;DHT22;57789;53.868;10.728;2023-07-29T11:34:50;24.40;99.90
70368;DHT22;57789;53.868;10.728;2023-07-29T11:37:16;24.50;99.90
70368;DHT22;57789;53.868;10.728;2023-07-29T11:39:44;24.30;99.90
70368;DHT22;57789;53.868;10.728;2023-07-29T11:42:16;24.00;99.90
70368;DHT22;57789;53.868;10.728;2023-07-29T11:44:42;24.10;99.90
70368;DHT22;57789;53.868;10.728;2023-07-29T11:47:12;24.00;99.90
70368;DHT22;57789;53.868;10.728;2023-07-29T11:49:39;24.10;99.90
70368;DHT22;57789;53.868;10.728;2023-07-29T11:52:09;24.30;99.90
70368;DHT22;57789;53.868;10.728;2023-07-29T11:54:38;24.40;99.90
70368;DHT22;57789;53.868;10.728;2023-07-29T11:57:08;24.60;99.90
70368;DHT22;57789;53.868;10.728;2023-07-29T11:59:35;24.40;99.90
70368;DHT22;57789;53.868;10.728;2023-07-29T12:02:05;24.50;99.90
70368;DHT22;57789;53.868;10.728;2023-07-29T12:04:31;24.30;99.90
70368;DHT22;57789;53.868;10.728;2023-07-29T12:06:57;24.30;99.90
70368;DHT22;57789;53.868;10.728;2023-07-29T12:09:24;24.30;99.90
70368;DHT22;57789;53.868;10.728;2023-07-29T12:11:52;24.40;99.90
70368;DHT22;57789;53.868;10.728;2023-07-29T12:14:18;24.40;99.90
70368;DHT22;57789;53.868;10.728;2023-07-29T12:16:44;24.30;99.90
70368;DHT22;57789;53.868;10.728;2023-07-29T12:19:13;24.20;99.90
70368;DHT22;57789;53.868;10.728;2023-07-29T12:21:41;24.30;99.90
70368;DHT22;57789;53.868;10.728;2023-07-29T12:24:07;24.40;99.90
70368;DHT22;57789;53.868;10.728;2023-07-29T12:26:33;24.50;99.90
70368;DHT22;57789;53.868;10.728;2023-07-29T12:29:14;24.30;99.90
70368;DHT22;57789;53.868;10.728;2023-07-29T12:31:41;23.90;99.90
70368;DHT22;57789;53.868;10.728;2023-07-29T12:34:07;24.00;99.90
70368;DHT22;57789;53.868;10.728;2023-07-29T12:39:20;23.50;99.90
70368;DHT22;57789;53.868;10.728;2023-07-29T12:41:49;23.30;99.90
70368;DHT22;57789;53.868;10.728;2023-07-29T12:44:16;23.20;99.90
70368;DHT22;57789;53.868;10.728;2023-07-29T12:46:41;23.40;99.90
70368;DHT22;57789;53.868;10.728;2023-07-29T12:49:08;24.00;99.90
70368;DHT22;57789;53.868;10.728;2023-07-29T12:51:33;24.40;99.90
70368;DHT22;57789;53.868;10.728;2023-07-29T12:54:00;24.10;99.90
70368;DHT22;57789;53.868;10.728;2023-07-29T12:56:25;24.10;99.90
70368;DHT22;57789;53.868;10.728;2023-07-29T12:58:52;24.30;99.90
70368;DHT22;57789;53.868;10.728;2023-07-29T13:01:17;25.00;99.90
70368;DHT22;57789;53.868;10.728;2023-07-29T13:03:44;25.60;99.90
70368;DHT22;57789;53.868;10.728;2023-07-29T13:06:10;25.70;99.90
70368;DHT22;57789;53.868;10.728;2023-07-29T13:08:35;26.30;99.90
70368;DHT22;57789;53.868;10.728;2023-07-29T13:11:01;26.50;99.90
70368;DHT22;57789;53.868;10.728;2023-07-29T13:13:27;25.90;99.90
70368;DHT22;57789;53.868;10.728;2023-07-29T13:15:52;26.40;99.90
70368;DHT22;57789;53.868;10.728;2023-07-29T13:18:18;26.30;99.90
70368;DHT22;57789;53.868;10.728;2023-07-29T13:20:44;26.50;99.90
70368;DHT22;57789;53.868;10.728;2023-07-29T13:23:09;26.40;99.90
70368;DHT22;57789;53.868;10.728;2023-07-29T13:25:35;26.30;99.90
70368;DHT22;57789;53.868;10.728;2023-07-29T13:28:01;26.50;99.90
70368;DHT22;57789;53.868;10.728;2023-07-29T13:30:26;26.50;99.90
70368;DHT22;57789;53.868;10.728;2023-07-29T13:32:52;26.80;99.90
70368;DHT22;57789;53.868;10.728;2023-07-29T13:35:18;26.80;99.90
70368;DHT22;57789;53.868;10.728;2023-07-29T13:37:44;26.80;99.90
70368;DHT22;57789;53.868;10.728;2023-07-29T13:40:09;27.20;99.90
70368;DHT22;57789;53.868;10.728;2023-07-29T13:42:35;27.30;99.90
70368;DHT22;57789;53.868;10.728;2023-07-29T13:45:02;26.70;99.90
70368;DHT22;57789;53.868;10.728;2023-07-29T13:47:28;25.80;99.90
70368;DHT22;57789;53.868;10.728;2023-07-29T13:49:53;25.40;99.90
70368;DHT22;57789;53.868;10.728;2023-07-29T13:52:19;25.40;99.90
70368;DHT22;57789;53.868;10.728;2023-07-29T13:54:45;25.70;99.90
70368;DHT22;57789;53.868;10.728;2023-07-29T13:57:10;26.40;99.90
70368;DHT22;57789;53.868;10.728;2023-07-29T13:59:36;27.10;99.90
70368;DHT22;57789;53.868;10.728;2023-07-29T14:02:05;27.40;99.90
70368;DHT22;57789;53.868;10.728;2023-07-29T14:04:32;27.40;99.90
70368;DHT22;57789;53.868;10.728;2023-07-29T14:06:58;27.30;99.90
70368;DHT22;57789;53.868;10.728;2023-07-29T14:09:24;27.70;99.90
70368;DHT22;57789;53.868;10.728;2023-07-29T14:11:50;27.40;99.90
70368;DHT22;57789;53.868;10.728;2023-07-29T14:14:16;27.00;99.90
70368;DHT22;57789;53.868;10.728;2023-07-29T14:16:41;27.30;99.90
70368;DHT22;57789;53.868;10.728;2023-07-29T14:19:07;27.50;99.90
70368;DHT22;57789;53.868;10.728;2023-07-29T14:21:33;27.40;99.90
70368;DHT22;57789;53.868;10.728;2023-07-29T14:23:58;27.80;99.90
70368;DHT22;57789;53.868;10.728;2023-07-29T14:26:24;27.70;99.90
70368;DHT22;57789;53.868;10.728;2023-07-29T14:28:50;27.30;99.90
70368;DHT22;57789;53.868;10.728;2023-07-29T14:31:16;27.40;99.90
70368;DHT22;57789;53.868;10.728;2023-07-29T14:33:44;27.40;99.90
70368;DHT22;57789;53.868;10.728;2023-07-29T14:36:10;27.60;99.90
70368;DHT22;57789;53.868;10.728;2023-07-29T14:38:36;27.80;99.90
70368;DHT22;57789;53.868;10.728;2023-07-29T14:41:05;27.40;99.90
70368;DHT22;57789;53.868;10.728;2023-07-29T14:43:30;27.40;99.90
70368;DHT22;57789;53.868;10.728;2023-07-29T14:45:56;27.40;99.90
70368;DHT22;57789;53.868;10.728;2023-07-29T14:48:23;27.50;99.90
70368;DHT22;57789;53.868;10.728;2023-07-29T14:50:48;27.20;99.90
70368;DHT22;57789;53.868;10.728;2023-07-29T14:53:14;27.10;99.90
70368;DHT22;57789;53.868;10.728;2023-07-29T14:55:41;26.80;99.90
70368;DHT22;57789;53.868;10.728;2023-07-29T14:58:07;27.20;99.90
70368;DHT22;57789;53.868;10.728;2023-07-29T15:00:32;26.90;99.90
70368;DHT22;57789;53.868;10.728;2023-07-29T15:02:58;27.30;99.90
70368;DHT22;57789;53.868;10.728;2023-07-29T15:05:24;27.30;99.90
70368;DHT22;57789;53.868;10.728;2023-07-29T15:07:50;26.90;99.90
70368;DHT22;57789;53.868;10.728;2023-07-29T15:10:17;27.80;99.90
70368;DHT22;57789;53.868;10.728;2023-07-29T15:12:44;28.90;99.90
70368;DHT22;57789;53.868;10.728;2023-07-29T15:15:10;28.70;99.90
70368;DHT22;57789;53.868;10.728;2023-07-29T15:17:37;28.00;99.90
70368;DHT22;57789;53.868;10.728;2023-07-29T15:20:03;27.50;99.90
70368;DHT22;57789;53.868;10.728;2023-07-29T15:22:29;26.40;99.90